Terminal Aerodrome Forecast
Issued by NWS Brownsville, TX

Home | Current Version | Previous Version | Text Only | Print | Product List | Glossary On
Versions: 1 2 3 4 5 6 7 8 9 10 11 12 13 14 15
000
FTUS44 KBRO 042011 AAA
TAFBRO
TAF AMD
KBRO 042011Z 0420/0518 14011KT P6SM SCT029 OVC100
     FM050200 12009KT P6SM BKN040
     FM050700 12009KT P6SM BKN025
     FM051200 12009KT P6SM OVC025
     FM051400 14016G22KT P6SM OVC015=

USA.gov is the U.S. government's official web portal to all federal, state and local government web resources and services.